sensor_id;sensor_type;location;lat;lon;timestamp;P1;durP1;ratioP1;P2;durP2;ratioP2
45392;SDS011;31129;44.810;10.334;2022-07-21T00:02:03;13.75;;;5.28;;
45392;SDS011;31129;44.810;10.334;2022-07-21T00:04:29;13.18;;;4.70;;
45392;SDS011;31129;44.810;10.334;2022-07-21T00:06:54;12.07;;;4.57;;
45392;SDS011;31129;44.810;10.334;2022-07-21T00:09:20;8.68;;;4.47;;
45392;SDS011;31129;44.810;10.334;2022-07-21T00:11:45;18.90;;;5.75;;
45392;SDS011;31129;44.810;10.334;2022-07-21T00:14:11;14.98;;;4.65;;
45392;SDS011;31129;44.810;10.334;2022-07-21T00:16:37;11.63;;;4.67;;
45392;SDS011;31129;44.810;10.334;2022-07-21T00:19:04;8.38;;;4.65;;
45392;SDS011;31129;44.810;10.334;2022-07-21T00:21:30;8.40;;;4.55;;
45392;SDS011;31129;44.810;10.334;2022-07-21T00:23:55;11.98;;;4.10;;
45392;SDS011;31129;44.810;10.334;2022-07-21T00:26:21;6.15;;;4.47;;
45392;SDS011;31129;44.810;10.334;2022-07-21T00:28:47;11.70;;;4.47;;
45392;SDS011;31129;44.810;10.334;2022-07-21T00:31:12;9.27;;;3.97;;
45392;SDS011;31129;44.810;10.334;2022-07-21T00:33:38;10.65;;;4.40;;
45392;SDS011;31129;44.810;10.334;2022-07-21T00:36:03;7.70;;;4.38;;
45392;SDS011;31129;44.810;10.334;2022-07-21T00:38:29;18.55;;;4.60;;
45392;SDS011;31129;44.810;10.334;2022-07-21T00:40:54;11.45;;;3.78;;
45392;SDS011;31129;44.810;10.334;2022-07-21T00:43:20;11.50;;;3.70;;
45392;SDS011;31129;44.810;10.334;2022-07-21T00:45:45;7.10;;;3.45;;
45392;SDS011;31129;44.810;10.334;2022-07-21T00:48:11;8.27;;;4.30;;
45392;SDS011;31129;44.810;10.334;2022-07-21T00:50:36;10.43;;;3.83;;
45392;SDS011;31129;44.810;10.334;2022-07-21T00:53:02;7.88;;;4.03;;
45392;SDS011;31129;44.810;10.334;2022-07-21T00:55:28;11.68;;;4.85;;
45392;SDS011;31129;44.810;10.334;2022-07-21T00:57:53;14.73;;;4.65;;
45392;SDS011;31129;44.810;10.334;2022-07-21T01:00:21;8.82;;;4.38;;
45392;SDS011;31129;44.810;10.334;2022-07-21T01:02:48;7.75;;;4.82;;
45392;SDS011;31129;44.810;10.334;2022-07-21T01:05:14;8.82;;;4.93;;
45392;SDS011;31129;44.810;10.334;2022-07-21T01:07:44;11.97;;;4.57;;
45392;SDS011;31129;44.810;10.334;2022-07-21T01:10:12;5.40;;;3.70;;
45392;SDS011;31129;44.810;10.334;2022-07-21T01:12:39;8.05;;;3.80;;
45392;SDS011;31129;44.810;10.334;2022-07-21T01:15:05;11.27;;;4.32;;
45392;SDS011;31129;44.810;10.334;2022-07-21T01:17:31;19.10;;;7.88;;
45392;SDS011;31129;44.810;10.334;2022-07-21T01:19:57;11.63;;;7.05;;
45392;SDS011;31129;44.810;10.334;2022-07-21T01:22:24;16.55;;;7.25;;
45392;SDS011;31129;44.810;10.334;2022-07-21T01:24:50;15.73;;;7.35;;
45392;SDS011;31129;44.810;10.334;2022-07-21T01:27:15;13.93;;;6.57;;
45392;SDS011;31129;44.810;10.334;2022-07-21T01:29:41;10.95;;;6.97;;
45392;SDS011;31129;44.810;10.334;2022-07-21T01:32:06;16.58;;;7.93;;
45392;SDS011;31129;44.810;10.334;2022-07-21T01:34:32;15.05;;;7.72;;
45392;SDS011;31129;44.810;10.334;2022-07-21T01:36:57;11.35;;;6.97;;
45392;SDS011;31129;44.810;10.334;2022-07-21T01:39:23;12.68;;;7.22;;
45392;SDS011;31129;44.810;10.334;2022-07-21T01:42:06;11.63;;;7.35;;
45392;SDS011;31129;44.810;10.334;2022-07-21T01:44:32;11.50;;;6.55;;
45392;SDS011;31129;44.810;10.334;2022-07-21T01:46:58;16.02;;;7.35;;
45392;SDS011;31129;44.810;10.334;2022-07-21T01:49:23;12.88;;;6.78;;
45392;SDS011;31129;44.810;10.334;2022-07-21T01:51:49;16.75;;;7.10;;
45392;SDS011;31129;44.810;10.334;2022-07-21T01:54:15;16.63;;;7.83;;
45392;SDS011;31129;44.810;10.334;2022-07-21T01:56:41;11.95;;;7.55;;
45392;SDS011;31129;44.810;10.334;2022-07-21T01:59:07;16.45;;;6.95;;
45392;SDS011;31129;44.810;10.334;2022-07-21T02:01:32;15.07;;;8.25;;
45392;SDS011;31129;44.810;10.334;2022-07-21T02:04:00;17.75;;;8.13;;
45392;SDS011;31129;44.810;10.334;2022-07-21T02:06:27;18.23;;;7.78;;
45392;SDS011;31129;44.810;10.334;2022-07-21T02:08:53;18.90;;;7.18;;
45392;SDS011;31129;44.810;10.334;2022-07-21T02:11:18;15.30;;;7.32;;
45392;SDS011;31129;44.810;10.334;2022-07-21T02:13:44;12.30;;;7.15;;
45392;SDS011;31129;44.810;10.334;2022-07-21T02:16:10;10.80;;;7.43;;
45392;SDS011;31129;44.810;10.334;2022-07-21T02:18:36;11.20;;;6.50;;
45392;SDS011;31129;44.810;10.334;2022-07-21T02:21:02;15.70;;;6.68;;
45392;SDS011;31129;44.810;10.334;2022-07-21T02:23:29;8.90;;;6.55;;
45392;SDS011;31129;44.810;10.334;2022-07-21T02:25:54;12.65;;;7.00;;
45392;SDS011;31129;44.810;10.334;2022-07-21T02:28:22;13.07;;;6.68;;
45392;SDS011;31129;44.810;10.334;2022-07-21T02:30:48;16.65;;;6.53;;
45392;SDS011;31129;44.810;10.334;2022-07-21T02:33:13;16.23;;;7.00;;
45392;SDS011;31129;44.810;10.334;2022-07-21T02:35:39;13.55;;;7.85;;
45392;SDS011;31129;44.810;10.334;2022-07-21T02:38:06;12.80;;;6.72;;
45392;SDS011;31129;44.810;10.334;2022-07-21T02:40:32;17.33;;;7.80;;
45392;SDS011;31129;44.810;10.334;2022-07-21T02:42:58;12.73;;;7.40;;
45392;SDS011;31129;44.810;10.334;2022-07-21T02:45:24;12.50;;;7.22;;
45392;SDS011;31129;44.810;10.334;2022-07-21T02:48:03;15.25;;;7.25;;
45392;SDS011;31129;44.810;10.334;2022-07-21T02:50:31;16.48;;;8.02;;
45392;SDS011;31129;44.810;10.334;2022-07-21T02:53:00;12.95;;;7.30;;
45392;SDS011;31129;44.810;10.334;2022-07-21T02:55:32;14.02;;;7.57;;
45392;SDS011;31129;44.810;10.334;2022-07-21T02:58:12;15.70;;;8.32;;
45392;SDS011;31129;44.810;10.334;2022-07-21T03:00:44;11.65;;;7.68;;
45392;SDS011;31129;44.810;10.334;2022-07-21T03:03:13;11.48;;;8.13;;
45392;SDS011;31129;44.810;10.334;2022-07-21T03:05:39;13.95;;;9.52;;
45392;SDS011;31129;44.810;10.334;2022-07-21T03:08:05;15.07;;;9.00;;
45392;SDS011;31129;44.810;10.334;2022-07-21T03:10:31;12.43;;;9.13;;
45392;SDS011;31129;44.810;10.334;2022-07-21T03:12:56;13.25;;;9.70;;
45392;SDS011;31129;44.810;10.334;2022-07-21T03:15:22;18.55;;;10.55;;
45392;SDS011;31129;44.810;10.334;2022-07-21T03:17:47;17.73;;;10.80;;
45392;SDS011;31129;44.810;10.334;2022-07-21T03:20:13;21.77;;;11.43;;
45392;SDS011;31129;44.810;10.334;2022-07-21T03:22:39;21.27;;;10.32;;
45392;SDS011;31129;44.810;10.334;2022-07-21T03:25:04;16.42;;;10.32;;
45392;SDS011;31129;44.810;10.334;2022-07-21T03:27:30;19.83;;;10.63;;
45392;SDS011;31129;44.810;10.334;2022-07-21T03:30:07;22.05;;;10.75;;
45392;SDS011;31129;44.810;10.334;2022-07-21T03:32:34;18.05;;;10.50;;
45392;SDS011;31129;44.810;10.334;2022-07-21T03:35:00;17.23;;;12.02;;
45392;SDS011;31129;44.810;10.334;2022-07-21T03:37:26;19.95;;;12.07;;
45392;SDS011;31129;44.810;10.334;2022-07-21T03:39:52;20.25;;;11.63;;
45392;SDS011;31129;44.810;10.334;2022-07-21T03:42:17;26.15;;;12.38;;
45392;SDS011;31129;44.810;10.334;2022-07-21T03:44:43;21.58;;;11.50;;
45392;SDS011;31129;44.810;10.334;2022-07-21T03:47:08;18.92;;;10.05;;
45392;SDS011;31129;44.810;10.334;2022-07-21T03:49:34;27.98;;;12.73;;
45392;SDS011;31129;44.810;10.334;2022-07-21T03:52:00;22.98;;;13.48;;
45392;SDS011;31129;44.810;10.334;2022-07-21T03:54:25;22.85;;;12.40;;
45392;SDS011;31129;44.810;10.334;2022-07-21T03:56:51;24.13;;;12.02;;
45392;SDS011;31129;44.810;10.334;2022-07-21T03:59:16;30.50;;;13.73;;
45392;SDS011;31129;44.810;10.334;2022-07-21T04:01:43;25.08;;;13.18;;
45392;SDS011;31129;44.810;10.334;2022-07-21T04:04:08;20.70;;;13.38;;
45392;SDS011;31129;44.810;10.334;2022-07-21T04:06:34;20.83;;;13.02;;
45392;SDS011;31129;44.810;10.334;2022-07-21T04:08:59;18.75;;;10.88;;
45392;SDS011;31129;44.810;10.334;2022-07-21T04:11:25;23.75;;;12.10;;
45392;SDS011;31129;44.810;10.334;2022-07-21T04:13:50;17.52;;;12.45;;
45392;SDS011;31129;44.810;10.334;2022-07-21T04:16:16;19.05;;;12.05;;
45392;SDS011;31129;44.810;10.334;2022-07-21T04:18:41;23.60;;;11.77;;
45392;SDS011;31129;44.810;10.334;2022-07-21T04:21:07;18.77;;;10.40;;
45392;SDS011;31129;44.810;10.334;2022-07-21T04:23:32;20.40;;;10.70;;
45392;SDS011;31129;44.810;10.334;2022-07-21T04:26:00;22.20;;;11.00;;
45392;SDS011;31129;44.810;10.334;2022-07-21T04:28:26;16.38;;;7.93;;
45392;SDS011;31129;44.810;10.334;2022-07-21T04:30:51;17.63;;;9.10;;
45392;SDS011;31129;44.810;10.334;2022-07-21T04:33:17;18.88;;;10.30;;
45392;SDS011;31129;44.810;10.334;2022-07-21T04:35:42;20.17;;;8.75;;
45392;SDS011;31129;44.810;10.334;2022-07-21T04:38:09;18.02;;;8.55;;
45392;SDS011;31129;44.810;10.334;2022-07-21T04:40:36;14.02;;;9.40;;
45392;SDS011;31129;44.810;10.334;2022-07-21T04:43:02;22.58;;;8.57;;
45392;SDS011;31129;44.810;10.334;2022-07-21T04:45:27;22.75;;;9.43;;
45392;SDS011;31129;44.810;10.334;2022-07-21T04:47:53;19.92;;;10.95;;
45392;SDS011;31129;44.810;10.334;2022-07-21T04:50:20;17.57;;;10.57;;
45392;SDS011;31129;44.810;10.334;2022-07-21T04:52:48;19.60;;;11.20;;
45392;SDS011;31129;44.810;10.334;2022-07-21T04:55:17;16.20;;;8.73;;
45392;SDS011;31129;44.810;10.334;2022-07-21T04:57:45;16.40;;;9.55;;
45392;SDS011;31129;44.810;10.334;2022-07-21T05:00:14;30.90;;;12.18;;
45392;SDS011;31129;44.810;10.334;2022-07-21T05:02:41;25.52;;;11.35;;
45392;SDS011;31129;44.810;10.334;2022-07-21T05:05:07;20.40;;;10.27;;
45392;SDS011;31129;44.810;10.334;2022-07-21T05:07:36;27.02;;;10.30;;
45392;SDS011;31129;44.810;10.334;2022-07-21T05:10:05;14.25;;;10.27;;
45392;SDS011;31129;44.810;10.334;2022-07-21T05:12:32;25.23;;;8.85;;
45392;SDS011;31129;44.810;10.334;2022-07-21T05:14:57;15.10;;;10.23;;
45392;SDS011;31129;44.810;10.334;2022-07-21T05:17:23;15.43;;;9.63;;
45392;SDS011;31129;44.810;10.334;2022-07-21T05:19:48;15.75;;;10.40;;
45392;SDS011;31129;44.810;10.334;2022-07-21T05:22:17;23.52;;;11.07;;
45392;SDS011;31129;44.810;10.334;2022-07-21T05:24:43;19.88;;;10.70;;
45392;SDS011;31129;44.810;10.334;2022-07-21T05:27:08;23.60;;;11.25;;
45392;SDS011;31129;44.810;10.334;2022-07-21T05:29:34;19.30;;;11.25;;
45392;SDS011;31129;44.810;10.334;2022-07-21T05:31:59;20.27;;;10.48;;
45392;SDS011;31129;44.810;10.334;2022-07-21T05:34:25;12.93;;;9.85;;
45392;SDS011;31129;44.810;10.334;2022-07-21T05:36:50;24.35;;;12.20;;
45392;SDS011;31129;44.810;10.334;2022-07-21T05:39:16;21.33;;;9.75;;
45392;SDS011;31129;44.810;10.334;2022-07-21T05:41:41;28.92;;;9.02;;
45392;SDS011;31129;44.810;10.334;2022-07-21T05:44:07;28.27;;;10.77;;
45392;SDS011;31129;44.810;10.334;2022-07-21T05:46:32;19.85;;;11.18;;
45392;SDS011;31129;44.810;10.334;2022-07-21T05:48:58;21.08;;;11.18;;
45392;SDS011;31129;44.810;10.334;2022-07-21T05:51:23;20.02;;;11.10;;
45392;SDS011;31129;44.810;10.334;2022-07-21T05:53:49;18.77;;;11.38;;
45392;SDS011;31129;44.810;10.334;2022-07-21T05:56:14;21.88;;;10.85;;
45392;SDS011;31129;44.810;10.334;2022-07-21T05:58:40;24.52;;;11.05;;
45392;SDS011;31129;44.810;10.334;2022-07-21T06:01:05;23.83;;;10.93;;
45392;SDS011;31129;44.810;10.334;2022-07-21T06:03:36;23.10;;;9.65;;
45392;SDS011;31129;44.810;10.334;2022-07-21T06:06:03;25.60;;;11.75;;
45392;SDS011;31129;44.810;10.334;2022-07-21T06:08:29;23.25;;;9.07;;
45392;SDS011;31129;44.810;10.334;2022-07-21T06:10:55;18.52;;;9.77;;
45392;SDS011;31129;44.810;10.334;2022-07-21T06:13:23;14.82;;;9.65;;
45392;SDS011;31129;44.810;10.334;2022-07-21T06:15:49;22.40;;;11.68;;
45392;SDS011;31129;44.810;10.334;2022-07-21T06:18:14;18.83;;;10.00;;
45392;SDS011;31129;44.810;10.334;2022-07-21T06:20:40;18.70;;;10.85;;
45392;SDS011;31129;44.810;10.334;2022-07-21T06:23:06;24.77;;;11.88;;
45392;SDS011;31129;44.810;10.334;2022-07-21T06:25:32;19.13;;;10.45;;
45392;SDS011;31129;44.810;10.334;2022-07-21T06:27:58;24.60;;;9.88;;
45392;SDS011;31129;44.810;10.334;2022-07-21T06:30:23;22.75;;;11.85;;
45392;SDS011;31129;44.810;10.334;2022-07-21T06:32:49;17.98;;;9.85;;
45392;SDS011;31129;44.810;10.334;2022-07-21T06:35:14;14.90;;;9.27;;
45392;SDS011;31129;44.810;10.334;2022-07-21T06:37:44;25.10;;;10.88;;
45392;SDS011;31129;44.810;10.334;2022-07-21T06:40:10;19.67;;;8.93;;
45392;SDS011;31129;44.810;10.334;2022-07-21T06:42:36;15.70;;;9.05;;
45392;SDS011;31129;44.810;10.334;2022-07-21T06:45:02;21.45;;;7.45;;
45392;SDS011;31129;44.810;10.334;2022-07-21T06:47:28;17.85;;;7.82;;
45392;SDS011;31129;44.810;10.334;2022-07-21T06:49:54;22.92;;;10.48;;
45392;SDS011;31129;44.810;10.334;2022-07-21T06:52:20;25.48;;;9.60;;
45392;SDS011;31129;44.810;10.334;2022-07-21T06:54:46;14.75;;;7.40;;
45392;SDS011;31129;44.810;10.334;2022-07-21T06:57:11;15.82;;;8.23;;
45392;SDS011;31129;44.810;10.334;2022-07-21T06:59:38;19.00;;;8.43;;
45392;SDS011;31129;44.810;10.334;2022-07-21T07:02:04;17.50;;;9.65;;
45392;SDS011;31129;44.810;10.334;2022-07-21T07:04:29;18.25;;;7.85;;
45392;SDS011;31129;44.810;10.334;2022-07-21T07:06:55;22.42;;;8.00;;
45392;SDS011;31129;44.810;10.334;2022-07-21T07:09:20;18.83;;;9.07;;
45392;SDS011;31129;44.810;10.334;2022-07-21T07:11:48;12.90;;;7.20;;
45392;SDS011;31129;44.810;10.334;2022-07-21T07:14:15;23.40;;;8.13;;
45392;SDS011;31129;44.810;10.334;2022-07-21T07:16:41;20.35;;;7.88;;
45392;SDS011;31129;44.810;10.334;2022-07-21T07:19:07;16.60;;;9.00;;
45392;SDS011;31129;44.810;10.334;2022-07-21T07:21:32;21.13;;;9.70;;
45392;SDS011;31129;44.810;10.334;2022-07-21T07:23:58;24.35;;;11.25;;
45392;SDS011;31129;44.810;10.334;2022-07-21T07:26:23;24.77;;;13.40;;
45392;SDS011;31129;44.810;10.334;2022-07-21T07:28:48;21.95;;;13.32;;
45392;SDS011;31129;44.810;10.334;2022-07-21T07:31:14;21.23;;;10.32;;
45392;SDS011;31129;44.810;10.334;2022-07-21T07:33:40;19.90;;;11.40;;
45392;SDS011;31129;44.810;10.334;2022-07-21T07:36:05;20.45;;;9.98;;
45392;SDS011;31129;44.810;10.334;2022-07-21T07:38:32;33.90;;;13.70;;
45392;SDS011;31129;44.810;10.334;2022-07-21T07:40:57;20.02;;;12.15;;
45392;SDS011;31129;44.810;10.334;2022-07-21T07:43:23;20.55;;;11.10;;
45392;SDS011;31129;44.810;10.334;2022-07-21T07:45:51;18.27;;;11.05;;
45392;SDS011;31129;44.810;10.334;2022-07-21T07:48:17;17.80;;;10.30;;
45392;SDS011;31129;44.810;10.334;2022-07-21T07:50:43;18.63;;;8.73;;
45392;SDS011;31129;44.810;10.334;2022-07-21T07:53:08;17.77;;;8.68;;
45392;SDS011;31129;44.810;10.334;2022-07-21T07:55:34;18.02;;;8.52;;
45392;SDS011;31129;44.810;10.334;2022-07-21T07:57:59;14.20;;;8.25;;
45392;SDS011;31129;44.810;10.334;2022-07-21T08:00:25;16.88;;;7.82;;
45392;SDS011;31129;44.810;10.334;2022-07-21T08:02:50;19.60;;;7.78;;
45392;SDS011;31129;44.810;10.334;2022-07-21T08:05:16;14.25;;;7.95;;
45392;SDS011;31129;44.810;10.334;2022-07-21T08:07:44;12.75;;;8.00;;
45392;SDS011;31129;44.810;10.334;2022-07-21T08:10:10;16.92;;;7.88;;
45392;SDS011;31129;44.810;10.334;2022-07-21T08:15:03;19.50;;;8.95;;
45392;SDS011;31129;44.810;10.334;2022-07-21T08:17:29;17.33;;;8.77;;
45392;SDS011;31129;44.810;10.334;2022-07-21T08:19:54;12.95;;;7.15;;
45392;SDS011;31129;44.810;10.334;2022-07-21T08:22:20;16.05;;;6.93;;
45392;SDS011;31129;44.810;10.334;2022-07-21T08:24:45;18.88;;;7.97;;
45392;SDS011;31129;44.810;10.334;2022-07-21T08:27:11;12.50;;;7.85;;
45392;SDS011;31129;44.810;10.334;2022-07-21T08:29:36;12.90;;;7.70;;
45392;SDS011;31129;44.810;10.334;2022-07-21T08:32:02;14.43;;;7.80;;
45392;SDS011;31129;44.810;10.334;2022-07-21T08:34:28;14.77;;;8.05;;
45392;SDS011;31129;44.810;10.334;2022-07-21T08:36:53;20.75;;;8.65;;
45392;SDS011;31129;44.810;10.334;2022-07-21T08:39:19;18.40;;;7.60;;
45392;SDS011;31129;44.810;10.334;2022-07-21T08:41:45;18.10;;;7.25;;
45392;SDS011;31129;44.810;10.334;2022-07-21T08:44:10;17.58;;;7.72;;
45392;SDS011;31129;44.810;10.334;2022-07-21T08:46:41;11.90;;;6.90;;
45392;SDS011;31129;44.810;10.334;2022-07-21T08:49:07;19.27;;;6.47;;
45392;SDS011;31129;44.810;10.334;2022-07-21T08:51:34;13.98;;;7.00;;
45392;SDS011;31129;44.810;10.334;2022-07-21T08:54:00;11.80;;;6.53;;
45392;SDS011;31129;44.810;10.334;2022-07-21T08:56:28;10.55;;;6.82;;
45392;SDS011;31129;44.810;10.334;2022-07-21T08:58:54;8.23;;;6.18;;
45392;SDS011;31129;44.810;10.334;2022-07-21T09:01:20;13.73;;;6.50;;
45392;SDS011;31129;44.810;10.334;2022-07-21T09:03:49;16.50;;;7.35;;
45392;SDS011;31129;44.810;10.334;2022-07-21T09:06:16;12.07;;;6.10;;
45392;SDS011;31129;44.810;10.334;2022-07-21T09:11:13;14.70;;;7.38;;
45392;SDS011;31129;44.810;10.334;2022-07-21T09:13:42;19.45;;;6.65;;
45392;SDS011;31129;44.810;10.334;2022-07-21T09:16:10;12.60;;;6.13;;
45392;SDS011;31129;44.810;10.334;2022-07-21T09:18:56;14.20;;;6.50;;
45392;SDS011;31129;44.810;10.334;2022-07-21T09:21:21;16.27;;;6.38;;
45392;SDS011;31129;44.810;10.334;2022-07-21T09:23:47;15.25;;;5.40;;
45392;SDS011;31129;44.810;10.334;2022-07-21T09:26:12;19.38;;;5.30;;
45392;SDS011;31129;44.810;10.334;2022-07-21T09:28:38;17.23;;;5.38;;
45392;SDS011;31129;44.810;10.334;2022-07-21T09:33:33;6.20;;;4.28;;
45392;SDS011;31129;44.810;10.334;2022-07-21T09:38:31;19.15;;;5.18;;
45392;SDS011;31129;44.810;10.334;2022-07-21T09:41:06;12.73;;;4.63;;
45392;SDS011;31129;44.810;10.334;2022-07-21T09:43:35;12.80;;;3.97;;
45392;SDS011;31129;44.810;10.334;2022-07-21T09:46:08;11.63;;;4.80;;
45392;SDS011;31129;44.810;10.334;2022-07-21T09:48:45;14.73;;;5.15;;
45392;SDS011;31129;44.810;10.334;2022-07-21T09:51:18;8.52;;;5.03;;
45392;SDS011;31129;44.810;10.334;2022-07-21T09:53:49;14.95;;;4.30;;
45392;SDS011;31129;44.810;10.334;2022-07-21T09:56:17;8.23;;;4.28;;
45392;SDS011;31129;44.810;10.334;2022-07-21T10:01:11;9.43;;;3.90;;
45392;SDS011;31129;44.810;10.334;2022-07-21T10:03:36;10.02;;;4.03;;
45392;SDS011;31129;44.810;10.334;2022-07-21T10:06:03;8.70;;;4.03;;
45392;SDS011;31129;44.810;10.334;2022-07-21T10:08:29;13.32;;;3.65;;
45392;SDS011;31129;44.810;10.334;2022-07-21T10:10:55;14.35;;;3.95;;
45392;SDS011;31129;44.810;10.334;2022-07-21T10:13:20;6.15;;;3.65;;
45392;SDS011;31129;44.810;10.334;2022-07-21T10:15:46;20.63;;;5.07;;
45392;SDS011;31129;44.810;10.334;2022-07-21T10:18:13;11.43;;;4.17;;
45392;SDS011;31129;44.810;10.334;2022-07-21T10:21:39;15.82;;;4.82;;
45392;SDS011;31129;44.810;10.334;2022-07-21T10:24:04;13.82;;;3.80;;
45392;SDS011;31129;44.810;10.334;2022-07-21T10:26:30;9.20;;;3.50;;
45392;SDS011;31129;44.810;10.334;2022-07-21T10:28:56;14.93;;;3.33;;
45392;SDS011;31129;44.810;10.334;2022-07-21T10:31:23;8.00;;;3.28;;
45392;SDS011;31129;44.810;10.334;2022-07-21T10:33:53;9.15;;;2.60;;
45392;SDS011;31129;44.810;10.334;2022-07-21T10:41:36;7.28;;;2.40;;
45392;SDS011;31129;44.810;10.334;2022-07-21T10:47:08;6.20;;;2.70;;
45392;SDS011;31129;44.810;10.334;2022-07-21T10:52:56;8.25;;;2.80;;
45392;SDS011;31129;44.810;10.334;2022-07-21T10:55:27;9.38;;;2.78;;
45392;SDS011;31129;44.810;10.334;2022-07-21T11:00:58;7.20;;;2.75;;
45392;SDS011;31129;44.810;10.334;2022-07-21T11:11:14;8.50;;;3.63;;
45392;SDS011;31129;44.810;10.334;2022-07-21T11:14:00;9.68;;;3.47;;
45392;SDS011;31129;44.810;10.334;2022-07-21T11:21:58;10.63;;;3.00;;
45392;SDS011;31129;44.810;10.334;2022-07-21T11:24:25;8.35;;;3.13;;
45392;SDS011;31129;44.810;10.334;2022-07-21T11:27:02;5.22;;;3.28;;
45392;SDS011;31129;44.810;10.334;2022-07-21T11:29:31;7.95;;;3.75;;
45392;SDS011;31129;44.810;10.334;2022-07-21T11:31:58;8.23;;;3.30;;
45392;SDS011;31129;44.810;10.334;2022-07-21T11:34:35;9.98;;;3.50;;
45392;SDS011;31129;44.810;10.334;2022-07-21T11:37:37;7.72;;;3.28;;
45392;SDS011;31129;44.810;10.334;2022-07-21T11:40:05;7.00;;;3.05;;
45392;SDS011;31129;44.810;10.334;2022-07-21T11:42:40;8.90;;;3.53;;
45392;SDS011;31129;44.810;10.334;2022-07-21T11:45:07;5.72;;;3.30;;
45392;SDS011;31129;44.810;10.334;2022-07-21T11:47:33;14.30;;;2.87;;
45392;SDS011;31129;44.810;10.334;2022-07-21T11:50:00;11.35;;;2.90;;
45392;SDS011;31129;44.810;10.334;2022-07-21T11:52:28;13.93;;;3.30;;
45392;SDS011;31129;44.810;10.334;2022-07-21T11:54:55;8.07;;;3.15;;
45392;SDS011;31129;44.810;10.334;2022-07-21T11:57:22;7.00;;;3.30;;
45392;SDS011;31129;44.810;10.334;2022-07-21T11:59:48;8.85;;;3.00;;
45392;SDS011;31129;44.810;10.334;2022-07-21T12:10:13;9.40;;;2.88;;
45392;SDS011;31129;44.810;10.334;2022-07-21T12:17:47;5.25;;;2.75;;
45392;SDS011;31129;44.810;10.334;2022-07-21T12:20:23;4.72;;;2.47;;
45392;SDS011;31129;44.810;10.334;2022-07-21T12:23:07;4.30;;;2.45;;
45392;SDS011;31129;44.810;10.334;2022-07-21T12:25:46;6.95;;;2.67;;
45392;SDS011;31129;44.810;10.334;2022-07-21T12:28:11;5.97;;;2.88;;
45392;SDS011;31129;44.810;10.334;2022-07-21T12:33:06;5.93;;;2.40;;
45392;SDS011;31129;44.810;10.334;2022-07-21T12:35:37;6.10;;;2.25;;
45392;SDS011;31129;44.810;10.334;2022-07-21T12:38:15;5.18;;;2.30;;
45392;SDS011;31129;44.810;10.334;2022-07-21T12:40:45;6.63;;;2.50;;
45392;SDS011;31129;44.810;10.334;2022-07-21T12:43:18;6.85;;;2.60;;
45392;SDS011;31129;44.810;10.334;2022-07-21T12:48:18;4.80;;;2.30;;
45392;SDS011;31129;44.810;10.334;2022-07-21T12:53:26;8.65;;;2.63;;
45392;SDS011;31129;44.810;10.334;2022-07-21T12:55:51;3.60;;;2.07;;
45392;SDS011;31129;44.810;10.334;2022-07-21T12:58:17;6.47;;;2.33;;
45392;SDS011;31129;44.810;10.334;2022-07-21T13:00:42;6.93;;;2.83;;
45392;SDS011;31129;44.810;10.334;2022-07-21T13:03:08;9.33;;;2.30;;
45392;SDS011;31129;44.810;10.334;2022-07-21T13:05:34;9.20;;;2.47;;
45392;SDS011;31129;44.810;10.334;2022-07-21T13:08:02;10.35;;;2.65;;
45392;SDS011;31129;44.810;10.334;2022-07-21T13:10:28;7.83;;;2.63;;
45392;SDS011;31129;44.810;10.334;2022-07-21T13:12:54;10.83;;;2.60;;
45392;SDS011;31129;44.810;10.334;2022-07-21T13:15:19;10.67;;;2.60;;
45392;SDS011;31129;44.810;10.334;2022-07-21T13:17:45;7.93;;;2.43;;
45392;SDS011;31129;44.810;10.334;2022-07-21T13:20:11;4.17;;;2.47;;
45392;SDS011;31129;44.810;10.334;2022-07-21T13:22:37;8.00;;;2.65;;
45392;SDS011;31129;44.810;10.334;2022-07-21T13:25:03;6.40;;;2.23;;
45392;SDS011;31129;44.810;10.334;2022-07-21T13:27:30;8.98;;;2.50;;
45392;SDS011;31129;44.810;10.334;2022-07-21T13:29:55;6.03;;;2.83;;
45392;SDS011;31129;44.810;10.334;2022-07-21T13:32:21;14.10;;;3.00;;
45392;SDS011;31129;44.810;10.334;2022-07-21T13:34:46;5.53;;;2.47;;
45392;SDS011;31129;44.810;10.334;2022-07-21T13:37:15;10.10;;;2.72;;
45392;SDS011;31129;44.810;10.334;2022-07-21T13:39:40;11.73;;;2.90;;
45392;SDS011;31129;44.810;10.334;2022-07-21T13:42:09;10.10;;;2.87;;
45392;SDS011;31129;44.810;10.334;2022-07-21T13:44:35;10.52;;;2.80;;
45392;SDS011;31129;44.810;10.334;2022-07-21T13:47:00;9.93;;;2.25;;
45392;SDS011;31129;44.810;10.334;2022-07-21T13:49:26;8.80;;;2.50;;
45392;SDS011;31129;44.810;10.334;2022-07-21T13:51:54;6.03;;;2.87;;
45392;SDS011;31129;44.810;10.334;2022-07-21T13:54:20;5.22;;;2.53;;
45392;SDS011;31129;44.810;10.334;2022-07-21T13:56:46;8.13;;;2.80;;
45392;SDS011;31129;44.810;10.334;2022-07-21T14:01:38;8.07;;;2.53;;
45392;SDS011;31129;44.810;10.334;2022-07-21T14:04:03;5.80;;;2.53;;
45392;SDS011;31129;44.810;10.334;2022-07-21T14:06:32;5.78;;;2.63;;
45392;SDS011;31129;44.810;10.334;2022-07-21T14:08:57;13.50;;;3.07;;
45392;SDS011;31129;44.810;10.334;2022-07-21T14:11:23;5.60;;;2.73;;
45392;SDS011;31129;44.810;10.334;2022-07-21T14:13:52;6.22;;;2.78;;
45392;SDS011;31129;44.810;10.334;2022-07-21T14:16:18;6.87;;;2.70;;
45392;SDS011;31129;44.810;10.334;2022-07-21T14:18:43;9.10;;;2.90;;
45392;SDS011;31129;44.810;10.334;2022-07-21T14:21:09;10.93;;;3.17;;
45392;SDS011;31129;44.810;10.334;2022-07-21T14:23:35;7.03;;;3.50;;
45392;SDS011;31129;44.810;10.334;2022-07-21T14:26:04;5.70;;;2.85;;
45392;SDS011;31129;44.810;10.334;2022-07-21T14:28:29;4.33;;;2.50;;
45392;SDS011;31129;44.810;10.334;2022-07-21T14:30:55;11.47;;;2.60;;
45392;SDS011;31129;44.810;10.334;2022-07-21T14:33:21;7.35;;;2.67;;
45392;SDS011;31129;44.810;10.334;2022-07-21T14:35:46;9.30;;;2.77;;
45392;SDS011;31129;44.810;10.334;2022-07-21T14:38:12;4.53;;;2.70;;
45392;SDS011;31129;44.810;10.334;2022-07-21T14:40:37;11.70;;;2.90;;
45392;SDS011;31129;44.810;10.334;2022-07-21T14:43:04;11.88;;;2.95;;
45392;SDS011;31129;44.810;10.334;2022-07-21T14:45:30;7.22;;;2.40;;
45392;SDS011;31129;44.810;10.334;2022-07-21T14:47:56;7.63;;;2.65;;
45392;SDS011;31129;44.810;10.334;2022-07-21T14:50:23;9.27;;;2.60;;
45392;SDS011;31129;44.810;10.334;2022-07-21T14:52:50;10.65;;;2.65;;
45392;SDS011;31129;44.810;10.334;2022-07-21T14:55:16;5.50;;;2.33;;
45392;SDS011;31129;44.810;10.334;2022-07-21T14:57:42;8.65;;;2.20;;
45392;SDS011;31129;44.810;10.334;2022-07-21T15:00:08;6.27;;;2.73;;
45392;SDS011;31129;44.810;10.334;2022-07-21T15:02:35;8.05;;;2.80;;
45392;SDS011;31129;44.810;10.334;2022-07-21T15:05:01;7.10;;;2.63;;
45392;SDS011;31129;44.810;10.334;2022-07-21T15:07:26;12.83;;;2.50;;
45392;SDS011;31129;44.810;10.334;2022-07-21T15:09:52;7.90;;;2.97;;
45392;SDS011;31129;44.810;10.334;2022-07-21T15:12:17;4.73;;;2.53;;
45392;SDS011;31129;44.810;10.334;2022-07-21T15:14:43;5.43;;;2.50;;
45392;SDS011;31129;44.810;10.334;2022-07-21T15:17:08;10.20;;;3.30;;
45392;SDS011;31129;44.810;10.334;2022-07-21T15:19:34;4.43;;;3.13;;
45392;SDS011;31129;44.810;10.334;2022-07-21T15:21:59;6.50;;;3.20;;
45392;SDS011;31129;44.810;10.334;2022-07-21T15:24:25;10.80;;;2.83;;
45392;SDS011;31129;44.810;10.334;2022-07-21T15:26:51;6.45;;;3.30;;